Time;durP1;ratioP1;P1;durP2;ratioP2;P2;SDS_P1;SDS_P2;PMS_P1;PMS_P2;Temp;Humidity;BMP_temperature;BMP_pressure;BME280_temperature;BME280_humidity;BME280_pressure;Samples;Min_cycle;Max_cycle;Signal;HPM_P1;HPM_P2
2022/03/06 00:00:02;;;;;;;6.30;3.30;;;0.90;91.30;;;;;;4997625;28;20229;-77
2022/03/06 00:02:38;;;;;;;9.90;3.77;;;0.90;91.30;;;;;;5003445;28;20321;-76
2022/03/06 00:05:07;;;;;;;5.93;3.70;;;0.90;91.40;;;;;;4976054;28;20322;-76
2022/03/06 00:07:33;;;;;;;6.20;3.80;;;0.90;91.40;;;;;;5009643;28;20238;-76
2022/03/06 00:10:00;;;;;;;6.80;3.67;;;0.90;91.40;;;;;;4999644;28;20234;-76
2022/03/06 00:12:27;;;;;;;14.80;7.57;;;0.90;91.50;;;;;;4997641;28;20324;-77
2022/03/06 00:14:55;;;;;;;17.50;10.17;;;0.90;91.50;;;;;;4993726;28;20228;-76
2022/03/06 00:17:22;;;;;;;20.60;10.57;;;0.90;91.60;;;;;;5009386;28;20707;-76
2022/03/06 00:19:48;;;;;;;17.00;10.00;;;0.90;91.70;;;;;;4989961;28;20228;-77
2022/03/06 00:22:15;;;;;;;17.60;8.60;;;1.00;91.70;;;;;;4997721;28;20219;-77
2022/03/06 00:24:41;;;;;;;16.47;9.43;;;1.00;91.70;;;;;;4999352;28;20911;-77
2022/03/06 00:27:08;;;;;;;26.53;14.57;;;1.00;91.80;;;;;;4994587;28;20222;-77
2022/03/06 00:29:35;;;;;;;17.93;9.13;;;1.00;91.80;;;;;;4970743;28;20728;-76
2022/03/06 00:32:04;;;;;;;10.10;7.00;;;1.00;91.70;;;;;;5005674;28;20229;-78
2022/03/06 00:34:31;;;;;;;8.73;5.60;;;1.00;91.80;;;;;;5000682;28;20258;-78
2022/03/06 00:36:57;;;;;;;8.00;4.50;;;1.00;91.70;;;;;;5001762;28;20221;-77
2022/03/06 00:39:24;;;;;;;5.50;3.00;;;1.00;91.70;;;;;;4996138;28;20398;-78
2022/03/06 00:41:51;;;;;;;11.03;5.30;;;1.00;91.70;;;;;;5005061;28;20231;-77
2022/03/06 00:44:17;;;;;;;12.07;7.33;;;1.00;91.60;;;;;;5003659;28;20243;-78
2022/03/06 00:46:46;;;;;;;11.30;6.30;;;1.00;91.60;;;;;;4978925;28;20223;-76
2022/03/06 00:49:14;;;;;;;12.73;4.80;;;1.00;91.60;;;;;;5001641;28;20230;-76
2022/03/06 00:51:40;;;;;;;8.00;3.83;;;1.00;91.60;;;;;;4997359;28;20235;-76
2022/03/06 00:54:07;;;;;;;7.17;3.27;;;0.90;91.50;;;;;;4999146;28;20235;-76
2022/03/06 00:56:34;;;;;;;5.63;3.30;;;0.90;91.50;;;;;;5007955;28;20957;-76
2022/03/06 00:59:01;;;;;;;4.80;3.13;;;0.90;91.60;;;;;;4998920;28;20273;-76
2022/03/06 01:01:29;;;;;;;7.30;2.97;;;0.90;91.70;;;;;;5002510;28;20249;-76
2022/03/06 01:03:55;;;;;;;5.57;2.87;;;0.80;91.50;;;;;;5004822;28;20227;-76
2022/03/06 01:06:23;;;;;;;7.10;3.60;;;0.80;91.60;;;;;;4993845;28;20231;-77
2022/03/06 01:08:50;;;;;;;4.20;2.90;;;0.80;91.80;;;;;;4978966;28;20362;-77
2022/03/06 01:11:17;;;;;;;4.90;3.00;;;0.80;91.70;;;;;;5007113;28;20227;-77
2022/03/06 01:13:43;;;;;;;4.47;3.13;;;0.70;91.80;;;;;;5003796;28;20221;-77
2022/03/06 01:16:10;;;;;;;5.90;3.27;;;0.70;91.80;;;;;;5007191;28;20232;-77
2022/03/06 01:18:37;;;;;;;4.93;3.17;;;0.70;91.90;;;;;;4999066;28;20230;-76
2022/03/06 01:21:03;;;;;;;5.30;3.27;;;0.70;91.90;;;;;;4999770;28;20304;-77
2022/03/06 01:23:32;;;;;;;5.07;3.43;;;0.70;91.90;;;;;;4995910;28;21001;-77
2022/03/06 01:25:58;;;;;;;6.50;3.97;;;0.60;92.20;;;;;;5002566;28;20221;-77
2022/03/06 01:28:25;;;;;;;6.70;3.40;;;0.60;91.80;;;;;;4997361;28;20237;-77
2022/03/06 01:30:52;;;;;;;7.03;3.20;;;0.60;91.90;;;;;;5002097;28;20224;-77
2022/03/06 01:33:18;;;;;;;5.30;3.63;;;0.60;91.80;;;;;;4995838;28;20241;-77
2022/03/06 01:35:45;;;;;;;6.03;3.73;;;0.50;91.90;;;;;;5002588;28;20225;-77
2022/03/06 01:38:12;;;;;;;4.83;3.60;;;0.50;91.90;;;;;;4999497;28;20228;-77
2022/03/06 01:40:40;;;;;;;5.70;3.70;;;0.50;91.90;;;;;;5013593;28;20236;-77
2022/03/06 01:43:06;;;;;;;6.00;3.43;;;0.50;91.80;;;;;;4997921;28;20238;-76
2022/03/06 01:45:33;;;;;;;6.80;4.00;;;0.40;91.90;;;;;;5003984;28;20225;-77
2022/03/06 01:48:03;;;;;;;5.47;3.50;;;0.40;91.90;;;;;;4997829;28;20229;-77
2022/03/06 01:50:32;;;;;;;5.60;3.93;;;0.30;92.10;;;;;;4997938;28;20230;-78
2022/03/06 01:53:01;;;;;;;6.50;3.83;;;0.30;92.20;;;;;;4973005;28;20252;-78
2022/03/06 01:55:29;;;;;;;7.57;3.90;;;0.20;92.30;;;;;;4980816;28;20241;-78
2022/03/06 01:58:00;;;;;;;7.53;3.57;;;0.20;92.30;;;;;;5004761;28;20817;-78
2022/03/06 02:00:30;;;;;;;7.33;4.30;;;0.20;92.40;;;;;;4983815;28;20254;-77
2022/03/06 02:02:57;;;;;;;5.67;3.77;;;0.20;92.50;;;;;;5007747;28;20224;-78
2022/03/06 02:05:23;;;;;;;4.83;3.67;;;0.20;92.40;;;;;;5015131;28;20225;-77
2022/03/06 02:07:50;;;;;;;6.30;4.07;;;0.10;92.40;;;;;;5006159;28;20235;-77
2022/03/06 02:10:17;;;;;;;7.83;3.90;;;0.10;92.50;;;;;;4996527;28;20248;-77
2022/03/06 02:12:46;;;;;;;5.67;3.77;;;0.10;92.50;;;;;;4991122;28;20246;-78
2022/03/06 02:15:15;;;;;;;8.40;4.00;;;0.10;92.60;;;;;;5007062;28;20233;-77
2022/03/06 02:17:43;;;;;;;6.20;3.80;;;0.10;92.70;;;;;;5003444;28;20230;-76
2022/03/06 02:20:12;;;;;;;5.80;3.80;;;0.10;92.60;;;;;;4991600;28;20233;-77
2022/03/06 02:22:42;;;;;;;7.20;3.93;;;0.10;92.60;;;;;;4991477;28;20372;-77
2022/03/06 02:25:10;;;;;;;5.43;3.93;;;0.10;92.80;;;;;;5003319;28;20224;-76
2022/03/06 02:27:38;;;;;;;4.87;3.97;;;0.10;92.90;;;;;;5005120;28;20240;-76
2022/03/06 02:30:06;;;;;;;5.73;4.10;;;0.10;92.80;;;;;;5000337;28;20225;-76
2022/03/06 02:32:34;;;;;;;6.73;4.10;;;0.20;92.90;;;;;;5004158;28;20233;-77
2022/03/06 02:35:00;;;;;;;4.83;3.57;;;0.20;92.90;;;;;;5011468;28;20885;-77
2022/03/06 02:37:27;;;;;;;7.53;4.40;;;0.20;92.90;;;;;;5003607;28;20222;-77
2022/03/06 02:39:55;;;;;;;6.03;3.70;;;0.20;93.00;;;;;;5004860;28;20773;-77
2022/03/06 02:42:27;;;;;;;6.63;4.30;;;0.20;92.90;;;;;;4999230;28;20237;-77
2022/03/06 02:44:54;;;;;;;6.50;4.07;;;0.20;93.00;;;;;;5005293;28;20244;-77
2022/03/06 02:47:21;;;;;;;5.50;3.50;;;0.20;92.90;;;;;;4995945;28;20222;-77
2022/03/06 02:49:48;;;;;;;6.40;3.83;;;0.20;92.90;;;;;;4986982;28;20244;-77
2022/03/06 02:52:15;;;;;;;5.70;3.90;;;0.20;93.00;;;;;;5006244;28;20289;-77
2022/03/06 02:54:42;;;;;;;6.00;4.10;;;0.20;93.00;;;;;;5006347;28;20567;-77
2022/03/06 02:57:10;;;;;;;7.27;3.87;;;0.20;93.00;;;;;;5018255;28;20883;-77
2022/03/06 02:59:37;;;;;;;7.13;3.63;;;0.20;93.00;;;;;;5002512;28;20245;-77
2022/03/06 03:02:05;;;;;;;4.57;3.40;;;0.20;93.00;;;;;;4992730;28;20244;-77
2022/03/06 03:04:32;;;;;;;6.57;3.67;;;0.20;93.00;;;;;;5015925;28;20707;-77
2022/03/06 03:06:59;;;;;;;5.63;3.33;;;0.20;93.10;;;;;;4985518;28;20237;-76
2022/03/06 03:09:26;;;;;;;6.90;4.07;;;0.20;93.10;;;;;;4999170;28;20726;-77
2022/03/06 03:11:54;;;;;;;6.73;3.67;;;0.30;93.20;;;;;;5008636;28;20230;-77
2022/03/06 03:14:23;;;;;;;5.17;3.97;;;0.30;93.20;;;;;;5009878;28;20916;-77
2022/03/06 03:16:49;;;;;;;5.77;4.00;;;0.30;93.20;;;;;;5005045;28;20235;-76
2022/03/06 03:19:17;;;;;;;6.40;3.73;;;0.30;93.20;;;;;;5000494;28;20241;-76
2022/03/06 03:21:44;;;;;;;7.20;4.40;;;0.30;93.20;;;;;;5010411;28;20230;-76
2022/03/06 03:24:11;;;;;;;6.53;3.93;;;0.30;93.30;;;;;;4987983;28;20234;-76
2022/03/06 03:26:38;;;;;;;5.63;3.70;;;0.30;93.20;;;;;;5002664;28;20239;-76
2022/03/06 03:29:04;;;;;;;5.13;3.40;;;0.30;93.20;;;;;;5000807;28;20225;-77
2022/03/06 03:31:32;;;;;;;5.00;3.53;;;0.30;93.10;;;;;;4982097;28;20226;-77
2022/03/06 03:33:59;;;;;;;4.27;3.43;;;0.30;93.60;;;;;;5005543;28;20220;-77
2022/03/06 03:36:26;;;;;;;5.23;3.70;;;0.30;93.20;;;;;;4992990;28;20230;-77
2022/03/06 03:38:53;;;;;;;5.43;3.07;;;0.30;93.20;;;;;;5001378;28;20236;-77
2022/03/06 03:41:19;;;;;;;6.63;3.47;;;0.30;93.10;;;;;;5004055;28;20229;-77
2022/03/06 03:43:46;;;;;;;5.27;3.17;;;0.30;93.20;;;;;;5002859;28;20229;-77
2022/03/06 03:46:12;;;;;;;5.50;3.23;;;0.30;93.20;;;;;;4998049;28;20234;-76
2022/03/06 03:48:40;;;;;;;4.57;3.20;;;0.30;93.10;;;;;;4997773;28;20314;-76
2022/03/06 03:51:07;;;;;;;5.47;2.70;;;0.30;93.20;;;;;;5004162;28;20248;-76
2022/03/06 03:53:34;;;;;;;4.80;2.90;;;0.30;93.20;;;;;;5004367;28;20245;-76
2022/03/06 03:56:01;;;;;;;4.30;3.00;;;0.30;93.10;;;;;;5009533;28;20262;-76
2022/03/06 03:58:28;;;;;;;4.40;2.80;;;0.30;93.20;;;;;;5004646;28;20240;-77
2022/03/06 04:00:55;;;;;;;4.30;3.00;;;0.30;93.20;;;;;;4985636;28;20220;-76
2022/03/06 04:03:21;;;;;;;4.03;2.43;;;0.30;93.20;;;;;;4997108;28;20229;-77
2022/03/06 04:05:50;;;;;;;4.10;3.03;;;0.30;93.10;;;;;;4992410;28;20243;-77
2022/03/06 04:08:17;;;;;;;3.90;2.43;;;0.30;93.30;;;;;;4981260;28;20234;-77
2022/03/06 04:10:44;;;;;;;4.53;2.30;;;0.30;93.40;;;;;;5016564;28;20237;-76
2022/03/06 04:13:11;;;;;;;4.33;2.40;;;0.30;93.20;;;;;;5004017;28;20707;-77
2022/03/06 04:15:37;;;;;;;3.30;2.40;;;0.30;93.20;;;;;;5007843;28;20233;-77
2022/03/06 04:18:04;;;;;;;3.17;2.10;;;0.30;93.10;;;;;;4996675;28;20222;-77
2022/03/06 04:20:32;;;;;;;4.03;2.30;;;0.30;93.10;;;;;;5004241;28;20805;-77
2022/03/06 04:23:00;;;;;;;2.93;2.00;;;0.30;93.10;;;;;;5003439;28;20807;-77
2022/03/06 04:25:27;;;;;;;3.27;2.27;;;0.30;93.00;;;;;;5004759;28;20740;-77
2022/03/06 04:27:53;;;;;;;4.47;2.30;;;0.30;92.90;;;;;;5001338;28;20571;-77
2022/03/06 04:30:20;;;;;;;4.00;1.90;;;0.30;92.90;;;;;;5001937;28;20217;-77
2022/03/06 04:32:47;;;;;;;2.53;2.10;;;0.30;93.00;;;;;;5005646;28;20240;-77
2022/03/06 04:35:13;;;;;;;45.67;22.40;;;0.30;93.00;;;;;;4999109;28;20220;-77
2022/03/06 04:37:40;;;;;;;94.73;39.83;;;0.30;93.00;;;;;;5001220;28;20235;-77
2022/03/06 04:40:09;;;;;;;46.60;22.43;;;0.30;92.90;;;;;;5000427;28;20263;-77
2022/03/06 04:42:36;;;;;;;10.77;5.23;;;0.30;93.00;;;;;;5003622;28;20234;-77
2022/03/06 04:45:04;;;;;;;7.67;3.37;;;0.30;93.00;;;;;;5000827;28;20220;-77
2022/03/06 04:47:31;;;;;;;9.33;8.30;;;0.30;92.90;;;;;;5019228;28;20267;-77
2022/03/06 04:49:57;;;;;;;5.03;3.10;;;0.30;92.80;;;;;;5023865;28;20221;-77
2022/03/06 04:52:24;;;;;;;6.27;4.80;;;0.30;92.80;;;;;;5023594;28;20267;-77
2022/03/06 04:54:51;;;;;;;5.33;2.63;;;0.30;92.80;;;;;;5023101;28;20226;-77
2022/03/06 04:57:19;;;;;;;3.90;2.67;;;0.40;92.90;;;;;;5017867;28;20225;-77
2022/03/06 04:59:46;;;;;;;3.23;2.40;;;0.40;92.90;;;;;;5015912;28;20256;-77
2022/03/06 05:02:12;;;;;;;2.53;1.90;;;0.40;92.80;;;;;;4997364;28;20318;-77
2022/03/06 05:04:39;;;;;;;4.43;2.27;;;0.40;92.80;;;;;;4998624;28;20235;-77
2022/03/06 05:07:06;;;;;;;2.20;1.90;;;0.40;92.90;;;;;;5000801;28;20231;-77
2022/03/06 05:09:32;;;;;;;22.67;12.80;;;0.40;92.90;;;;;;5002441;28;20227;-76
2022/03/06 05:11:59;;;;;;;5.73;3.00;;;0.40;92.90;;;;;;5026825;28;20226;-76
2022/03/06 05:14:27;;;;;;;7.13;5.27;;;0.40;92.90;;;;;;5025462;28;20725;-77
2022/03/06 05:16:54;;;;;;;5.73;3.90;;;0.40;92.80;;;;;;5028505;28;20770;-76
2022/03/06 05:19:20;;;;;;;7.17;6.47;;;0.40;92.80;;;;;;5021822;28;20222;-76
2022/03/06 05:21:47;;;;;;;5.23;3.00;;;0.40;92.90;;;;;;5030678;28;20319;-77
2022/03/06 05:24:14;;;;;;;4.17;2.43;;;0.40;92.90;;;;;;5007257;28;20226;-77
2022/03/06 05:26:40;;;;;;;4.90;2.07;;;0.40;93.00;;;;;;5022858;28;20236;-77
2022/03/06 05:29:07;;;;;;;4.17;2.73;;;0.40;93.10;;;;;;5014101;28;20288;-77
2022/03/06 05:31:35;;;;;;;3.93;2.67;;;0.40;92.90;;;;;;5007518;28;20226;-77
2022/03/06 05:34:02;;;;;;;3.47;2.30;;;0.40;92.90;;;;;;4983335;28;20256;-77
2022/03/06 05:36:28;;;;;;;3.83;1.87;;;0.50;92.90;;;;;;5008592;28;20222;-77
2022/03/06 05:38:55;;;;;;;5.47;2.30;;;0.50;92.90;;;;;;4987511;28;20229;-77
2022/03/06 05:41:22;;;;;;;4.03;2.70;;;0.40;92.90;;;;;;5003613;28;20231;-77
2022/03/06 05:43:48;;;;;;;2.73;2.17;;;0.40;92.90;;;;;;5006646;28;20962;-77
2022/03/06 05:46:15;;;;;;;3.57;2.23;;;0.40;92.80;;;;;;4979694;28;20226;-76
2022/03/06 05:48:43;;;;;;;3.77;2.03;;;0.40;92.90;;;;;;5002585;28;20227;-77
2022/03/06 05:51:10;;;;;;;2.43;2.07;;;0.40;93.00;;;;;;5009738;28;20255;-77
2022/03/06 05:53:37;;;;;;;4.50;1.70;;;0.40;93.00;;;;;;5006696;28;20222;-77
2022/03/06 05:56:05;;;;;;;3.23;1.90;;;0.40;92.90;;;;;;5008978;28;20281;-78
2022/03/06 05:58:31;;;;;;;3.73;2.10;;;0.40;92.90;;;;;;5009074;28;20222;-76
2022/03/06 06:00:58;;;;;;;4.03;2.03;;;0.40;92.90;;;;;;5007373;28;20657;-77
2022/03/06 06:03:25;;;;;;;3.73;1.77;;;0.40;93.00;;;;;;5031832;28;20235;-76
2022/03/06 06:05:53;;;;;;;4.00;2.10;;;0.40;93.10;;;;;;5026244;28;20229;-80
2022/03/06 06:08:19;;;;;;;2.90;2.03;;;0.50;93.20;;;;;;5030059;28;20834;-82
2022/03/06 06:10:46;;;;;;;4.10;2.10;;;0.40;93.20;;;;;;5022286;28;21057;-81
2022/03/06 06:13:14;;;;;;;4.20;1.97;;;0.40;93.10;;;;;;5016418;28;20329;-80
2022/03/06 06:15:43;;;;;;;2.80;2.10;;;0.40;93.00;;;;;;5022321;28;20235;-81
2022/03/06 06:18:09;;;;;;;3.03;1.80;;;0.40;93.10;;;;;;5023816;28;20232;-80
2022/03/06 06:20:36;;;;;;;4.10;2.30;;;0.30;93.10;;;;;;5023284;28;20239;-81
2022/03/06 06:23:05;;;;;;;3.40;2.30;;;0.40;93.10;;;;;;5040425;28;20232;-82
2022/03/06 06:25:31;;;;;;;5.53;2.70;;;0.40;93.10;;;;;;5028493;28;20235;-81
2022/03/06 06:27:58;;;;;;;4.77;2.20;;;0.40;93.00;;;;;;5023188;28;20781;-81
2022/03/06 06:30:26;;;;;;;4.27;2.10;;;0.40;93.00;;;;;;5028660;28;20236;-82
2022/03/06 06:32:52;;;;;;;4.90;2.50;;;0.50;93.00;;;;;;5025403;28;20857;-82
2022/03/06 06:35:20;;;;;;;3.07;2.17;;;0.50;93.00;;;;;;5032192;28;20241;-80
2022/03/06 06:37:48;;;;;;;6.20;2.40;;;0.50;93.10;;;;;;5029152;28;20281;-81
2022/03/06 06:40:16;;;;;;;4.63;2.20;;;0.50;93.00;;;;;;5020982;28;20791;-80
2022/03/06 06:42:43;;;;;;;2.50;2.10;;;0.50;92.90;;;;;;5025720;28;20753;-79
2022/03/06 06:45:10;;;;;;;5.63;2.47;;;0.60;92.80;;;;;;5016519;28;20333;-80
2022/03/06 06:47:37;;;;;;;3.37;2.20;;;0.60;92.80;;;;;;5026316;28;20224;-79
2022/03/06 06:50:05;;;;;;;3.33;2.20;;;0.50;92.90;;;;;;5026602;28;20251;-79
2022/03/06 06:52:31;;;;;;;4.37;3.07;;;0.50;93.00;;;;;;5037609;28;20673;-79
2022/03/06 06:54:58;;;;;;;4.20;3.20;;;0.60;92.90;;;;;;5023408;28;20243;-79
2022/03/06 06:57:26;;;;;;;7.13;3.90;;;0.60;92.90;;;;;;5024176;28;20231;-79
2022/03/06 06:59:53;;;;;;;4.30;2.60;;;0.70;92.80;;;;;;5025043;28;20269;-79
2022/03/06 07:02:20;;;;;;;3.53;3.03;;;0.70;92.70;;;;;;5021311;28;20231;-79
2022/03/06 07:04:46;;;;;;;8.57;5.47;;;0.70;92.60;;;;;;5027611;28;20697;-80
2022/03/06 07:07:13;;;;;;;6.43;4.27;;;0.70;92.60;;;;;;5030591;28;20857;-80
2022/03/06 07:09:40;;;;;;;5.73;4.80;;;0.80;92.60;;;;;;5029013;28;20227;-80
2022/03/06 07:12:08;;;;;;;4.10;3.70;;;0.80;92.50;;;;;;5026505;28;20238;-80
2022/03/06 07:14:36;;;;;;;5.60;4.60;;;0.80;92.50;;;;;;5028017;28;20581;-79
2022/03/06 07:17:03;;;;;;;3.00;2.60;;;0.90;92.30;;;;;;5032612;28;20712;-79
2022/03/06 07:19:29;;;;;;;6.83;3.10;;;0.90;92.30;;;;;;5025384;28;20731;-80
2022/03/06 07:21:56;;;;;;;8.87;6.13;;;0.90;92.30;;;;;;5026076;28;20225;-79
2022/03/06 07:24:23;;;;;;;8.97;6.43;;;1.00;92.20;;;;;;5019126;28;20227;-79
2022/03/06 07:26:50;;;;;;;6.03;3.13;;;1.00;92.10;;;;;;5024380;28;20230;-79
2022/03/06 07:29:16;;;;;;;6.50;4.50;;;1.00;92.10;;;;;;5027292;28;20235;-79
2022/03/06 07:31:44;;;;;;;4.70;3.30;;;1.10;91.90;;;;;;5023367;28;20240;-78
2022/03/06 07:34:11;;;;;;;5.50;3.00;;;1.10;92.00;;;;;;5030320;28;20236;-78
2022/03/06 07:36:38;;;;;;;4.30;3.53;;;1.10;92.00;;;;;;5023091;28;20233;-79
2022/03/06 07:39:04;;;;;;;4.60;3.60;;;1.20;91.90;;;;;;5031470;28;20232;-79
2022/03/06 07:41:31;;;;;;;3.30;2.43;;;1.20;91.80;;;;;;5032404;28;20221;-79
2022/03/06 07:43:58;;;;;;;15.47;13.03;;;1.30;91.70;;;;;;5020447;28;20222;-79
2022/03/06 07:46:25;;;;;;;38.40;23.13;;;1.30;91.50;;;;;;5027354;28;20229;-79
2022/03/06 07:48:53;;;;;;;7.00;4.57;;;1.40;91.50;;;;;;5025801;28;20241;-80
2022/03/06 07:51:20;;;;;;;3.10;2.57;;;1.40;91.40;;;;;;5036324;28;20221;-79
2022/03/06 07:53:46;;;;;;;3.53;2.60;;;1.50;91.30;;;;;;5031005;28;20232;-78
2022/03/06 07:56:13;;;;;;;6.80;4.70;;;1.60;91.10;;;;;;5033342;28;20247;-79
2022/03/06 07:58:40;;;;;;;27.73;19.03;;;1.60;91.00;;;;;;5025287;28;20236;-80
2022/03/06 08:01:06;;;;;;;10.97;6.77;;;1.70;91.10;;;;;;5043742;28;20241;-80
2022/03/06 08:03:33;;;;;;;25.40;14.63;;;1.80;91.00;;;;;;5042842;28;20230;-78
2022/03/06 08:06:01;;;;;;;11.43;6.67;;;1.90;90.80;;;;;;5031759;28;20236;-78
2022/03/06 08:08:28;;;;;;;23.60;10.57;;;1.90;90.80;;;;;;5024666;28;20246;-79
2022/03/06 08:10:54;;;;;;;79.30;41.53;;;2.10;90.80;;;;;;5027424;28;20244;-79
2022/03/06 08:13:21;;;;;;;8.40;4.97;;;2.20;90.40;;;;;;5026033;28;20235;-80
2022/03/06 08:15:48;;;;;;;6.50;3.27;;;2.30;90.30;;;;;;5027133;28;20223;-79
2022/03/06 08:18:14;;;;;;;5.07;3.43;;;2.40;89.70;;;;;;5025242;28;20335;-78
2022/03/06 08:20:41;;;;;;;5.83;3.93;;;2.50;89.80;;;;;;5042879;28;20239;-79
2022/03/06 08:23:09;;;;;;;3.57;2.30;;;2.50;89.80;;;;;;5029215;28;20235;-78
2022/03/06 08:25:36;;;;;;;4.40;2.50;;;2.60;88.40;;;;;;5034839;28;20316;-78
2022/03/06 08:28:02;;;;;;;2.80;2.10;;;2.60;88.00;;;;;;5033661;28;20639;-79
2022/03/06 08:30:29;;;;;;;3.47;2.20;;;2.60;88.30;;;;;;5031283;28;20621;-79
2022/03/06 08:32:56;;;;;;;3.33;2.23;;;2.60;88.10;;;;;;5022933;28;20225;-78
2022/03/06 08:35:22;;;;;;;3.93;2.40;;;2.50;88.00;;;;;;5032274;28;20247;-80
2022/03/06 08:37:49;;;;;;;2.67;1.90;;;2.50;87.30;;;;;;5021942;28;20237;-80
2022/03/06 08:40:17;;;;;;;3.50;2.13;;;2.60;88.20;;;;;;5031995;28;20237;-79
2022/03/06 08:42:44;;;;;;;2.00;1.80;;;2.70;87.20;;;;;;5013164;28;20987;-80
2022/03/06 08:45:10;;;;;;;3.17;1.93;;;3.00;87.20;;;;;;5028232;28;21058;-81
2022/03/06 08:47:37;;;;;;;5.10;2.10;;;3.30;88.10;;;;;;5021305;28;20233;-79
2022/03/06 08:50:05;;;;;;;3.43;2.10;;;3.70;88.30;;;;;;5014459;28;20230;-80
2022/03/06 08:52:32;;;;;;;2.53;1.97;;;4.10;86.60;;;;;;5024038;28;20227;-79
2022/03/06 08:54:59;;;;;;;2.00;1.80;;;4.60;85.10;;;;;;5028105;28;20241;-79
2022/03/06 08:57:27;;;;;;;2.63;1.90;;;5.20;85.40;;;;;;5010682;28;20244;-80
2022/03/06 08:59:54;;;;;;;2.53;1.70;;;5.70;85.90;;;;;;5003608;28;20236;-79
2022/03/06 09:02:21;;;;;;;2.30;1.80;;;6.30;84.30;;;;;;4989153;28;20323;-81
2022/03/06 09:04:48;;;;;;;3.37;1.83;;;6.90;85.20;;;;;;4991155;28;20218;-81
2022/03/06 09:07:15;;;;;;;3.00;2.00;;;7.50;83.60;;;;;;4984170;28;20635;-80
2022/03/06 09:09:41;;;;;;;3.57;1.90;;;8.20;83.20;;;;;;4996817;28;20243;-82
2022/03/06 09:12:08;;;;;;;2.43;1.70;;;8.80;81.80;;;;;;5007591;28;20240;-81
2022/03/06 09:14:36;;;;;;;2.10;1.20;;;9.40;81.00;;;;;;5026872;28;20229;-82
2022/03/06 09:17:04;;;;;;;1.77;1.57;;;10.10;78.40;;;;;;4998909;28;20800;-82
2022/03/06 09:19:31;;;;;;;2.87;1.73;;;10.70;77.30;;;;;;5008110;28;20230;-82
2022/03/06 09:21:57;;;;;;;1.80;1.60;;;11.30;76.50;;;;;;4990897;28;20239;-76
2022/03/06 09:24:24;;;;;;;3.00;1.63;;;11.80;74.30;;;;;;4994475;28;20227;-77
2022/03/06 09:26:51;;;;;;;1.77;1.40;;;12.30;72.80;;;;;;5003759;28;20228;-77
2022/03/06 09:29:17;;;;;;;1.87;1.53;;;12.70;68.90;;;;;;5008977;28;20224;-77
2022/03/06 09:31:45;;;;;;;1.80;1.40;;;12.90;69.10;;;;;;5006574;28;20265;-77
2022/03/06 09:34:12;;;;;;;2.43;1.30;;;13.10;67.70;;;;;;5005574;28;20312;-77
2022/03/06 09:36:39;;;;;;;2.67;1.60;;;13.10;67.00;;;;;;5013519;28;20231;-77
2022/03/06 09:39:06;;;;;;;2.37;1.50;;;13.20;64.60;;;;;;5004721;28;20225;-77
2022/03/06 09:41:38;;;;;;;3.40;2.30;;;13.10;63.30;;;;;;5011162;28;20229;-77
2022/03/06 09:44:08;;;;;;;13.97;9.43;;;12.90;60.20;;;;;;5011863;28;20230;-77
2022/03/06 09:46:35;;;;;;;3.23;2.67;;;12.70;60.30;;;;;;5010569;28;20243;-77
2022/03/06 09:49:05;;;;;;;3.60;1.90;;;12.40;60.10;;;;;;5009707;28;20237;-77
2022/03/06 09:51:33;;;;;;;2.20;1.47;;;12.20;60.40;;;;;;5004897;28;20253;-77
2022/03/06 09:54:00;;;;;;;2.10;1.60;;;12.00;57.80;;;;;;5003393;28;20248;-77
2022/03/06 09:56:26;;;;;;;2.33;1.40;;;11.90;61.20;;;;;;4989073;28;20688;-77
2022/03/06 09:58:53;;;;;;;2.43;1.60;;;11.90;63.20;;;;;;5008755;28;20268;-77
2022/03/06 10:01:20;;;;;;;1.63;1.53;;;12.00;63.80;;;;;;4988447;28;20266;-77
2022/03/06 10:03:46;;;;;;;2.80;1.60;;;12.30;63.30;;;;;;5004845;28;20235;-77
2022/03/06 10:06:14;;;;;;;2.40;1.60;;;12.60;63.30;;;;;;5000030;28;20314;-77
2022/03/06 10:08:41;;;;;;;1.97;1.60;;;12.90;63.20;;;;;;4997866;28;20240;-77
2022/03/06 10:11:10;;;;;;;4.13;3.10;;;13.30;61.40;;;;;;5000700;28;20235;-77
2022/03/06 10:13:39;;;;;;;3.93;1.93;;;13.40;59.20;;;;;;4999131;28;20231;-77
2022/03/06 10:16:10;;;;;;;2.10;1.57;;;13.40;57.70;;;;;;5017653;28;20236;-77
2022/03/06 10:18:38;;;;;;;1.97;1.67;;;13.30;55.80;;;;;;5001171;28;20234;-77
2022/03/06 10:21:18;;;;;;;3.07;1.93;;;13.10;57.50;;;;;;5016203;28;20249;-77
2022/03/06 10:23:46;;;;;;;1.73;1.63;;;12.80;58.00;;;;;;5019404;28;20231;-77
2022/03/06 10:26:15;;;;;;;3.90;1.80;;;12.50;57.20;;;;;;5008139;28;20719;-77
2022/03/06 10:28:46;;;;;;;2.20;1.70;;;12.10;56.50;;;;;;5005412;28;20349;-78
2022/03/06 10:31:14;;;;;;;4.90;2.10;;;11.70;57.30;;;;;;5015938;28;20230;-77
2022/03/06 10:33:41;;;;;;;3.63;1.80;;;11.20;57.80;;;;;;5008107;28;20593;-77
2022/03/06 10:36:10;;;;;;;4.13;1.93;;;10.70;57.60;;;;;;5008485;28;20297;-77
2022/03/06 10:38:38;;;;;;;2.60;1.83;;;10.30;57.40;;;;;;5011865;28;20242;-77
2022/03/06 10:41:12;;;;;;;3.00;2.00;;;10.00;57.10;;;;;;5010721;28;20242;-77
2022/03/06 10:43:41;;;;;;;2.50;1.83;;;9.80;58.50;;;;;;5010076;28;20252;-77
2022/03/06 10:46:09;;;;;;;2.80;2.20;;;9.70;58.40;;;;;;5011714;28;20235;-77
2022/03/06 10:48:36;;;;;;;3.07;2.13;;;9.80;60.60;;;;;;4992672;28;20807;-77
2022/03/06 10:51:04;;;;;;;3.23;2.10;;;9.90;61.50;;;;;;5015562;28;20238;-77
2022/03/06 10:53:31;;;;;;;4.23;2.30;;;10.20;61.00;;;;;;5030615;28;20735;-77
2022/03/06 10:56:07;;;;;;;3.33;1.90;;;10.30;60.30;;;;;;5014469;28;20701;-77
2022/03/06 10:58:37;;;;;;;3.90;2.00;;;10.50;59.00;;;;;;5022643;28;20307;-77
2022/03/06 11:01:04;;;;;;;2.17;1.90;;;10.70;60.30;;;;;;5027108;28;20232;-77
2022/03/06 11:03:33;;;;;;;4.30;2.20;;;10.90;60.40;;;;;;5036184;28;20233;-77
2022/03/06 11:06:01;;;;;;;2.70;1.80;;;11.10;58.80;;;;;;5020939;28;20234;-79
2022/03/06 11:08:28;;;;;;;3.27;1.73;;;11.20;58.00;;;;;;5036889;28;20230;-80
2022/03/06 11:10:54;;;;;;;3.93;2.00;;;11.20;57.60;;;;;;5029305;28;20228;-80
2022/03/06 11:13:24;;;;;;;3.23;1.90;;;11.00;58.00;;;;;;5020921;28;20217;-80
2022/03/06 11:15:51;;;;;;;2.47;1.70;;;10.80;57.30;;;;;;5025349;28;20236;-81
2022/03/06 11:18:19;;;;;;;2.47;1.90;;;10.60;57.20;;;;;;5017348;28;20225;-80
2022/03/06 11:20:47;;;;;;;2.53;1.80;;;10.50;59.10;;;;;;5023528;28;20323;-80
2022/03/06 11:23:24;;;;;;;2.53;1.90;;;10.50;59.90;;;;;;5011923;28;20218;-79
2022/03/06 11:26:25;;;;;;;3.00;1.90;;;10.60;59.90;;;;;;5030450;28;20649;-80
2022/03/06 11:29:12;;;;;;;2.83;1.57;;;10.90;59.20;;;;;;5015274;28;20686;-79
2022/03/06 11:31:45;;;;;;;3.43;2.10;;;11.20;59.80;;;;;;5030131;28;20228;-80
2022/03/06 11:34:12;;;;;;;2.33;1.80;;;11.50;60.00;;;;;;5014652;28;20231;-80
2022/03/06 11:36:47;;;;;;;2.47;1.70;;;11.80;59.70;;;;;;5027149;28;20236;-79
2022/03/06 11:39:16;;;;;;;2.27;1.73;;;12.10;59.00;;;;;;5017183;28;20644;-81
2022/03/06 11:41:43;;;;;;;2.83;1.67;;;12.30;59.20;;;;;;5018486;28;20223;-80
2022/03/06 11:44:32;;;;;;;3.90;2.23;;;12.40;58.20;;;;;;5025933;28;20229;-81
2022/03/06 11:46:59;;;;;;;3.43;2.00;;;12.30;56.20;;;;;;5021067;28;20816;-80
2022/03/06 11:49:34;;;;;;;3.50;2.30;;;12.10;56.80;;;;;;5020782;28;20233;-79
2022/03/06 11:52:01;;;;;;;3.10;2.23;;;11.80;55.40;;;;;;5022418;28;20236;-80
2022/03/06 11:54:42;;;;;;;3.80;2.13;;;11.50;57.00;;;;;;5021687;28;20698;-79
2022/03/06 11:57:08;;;;;;;3.17;2.23;;;11.20;57.30;;;;;;5020083;28;20225;-80
2022/03/06 11:59:50;;;;;;;4.60;2.40;;;11.00;57.90;;;;;;5026214;28;20227;-80
2022/03/06 12:02:20;;;;;;;8.70;7.60;;;10.90;58.30;;;;;;5040077;28;20235;-79
2022/03/06 12:04:52;;;;;;;8.17;5.50;;;10.70;57.90;;;;;;5029409;28;20229;-80
2022/03/06 12:07:21;;;;;;;25.43;14.40;;;10.60;58.50;;;;;;5034527;28;20725;-80
2022/03/06 12:09:48;;;;;;;14.43;8.87;;;10.50;58.80;;;;;;5032444;28;20302;-80
2022/03/06 12:12:17;;;;;;;48.17;26.37;;;10.50;58.80;;;;;;5034334;28;20233;-79
2022/03/06 12:14:46;;;;;;;8.97;5.10;;;10.40;58.80;;;;;;5030851;28;20234;-80
2022/03/06 12:17:26;;;;;;;6.80;2.90;;;10.30;58.80;;;;;;5034953;28;20230;-79
2022/03/06 12:20:32;;;;;;;29.20;14.27;;;10.20;59.00;;;;;;5024454;28;20299;-80
2022/03/06 12:23:03;;;;;;;13.33;6.97;;;10.20;59.80;;;;;;5028439;28;20215;-80
2022/03/06 12:25:33;;;;;;;6.40;4.23;;;10.30;60.90;;;;;;5023181;28;20225;-81
2022/03/06 12:28:22;;;;;;;16.00;9.40;;;10.50;59.50;;;;;;5012521;28;20690;-80
2022/03/06 12:30:51;;;;;;;6.13;4.77;;;10.50;59.40;;;;;;5012623;28;20224;-80
2022/03/06 12:33:39;;;;;;;10.00;7.20;;;10.30;58.40;;;;;;5024147;28;20232;-80
2022/03/06 12:36:16;;;;;;;5.17;2.87;;;10.00;58.90;;;;;;5007711;28;20232;-78
2022/03/06 12:38:43;;;;;;;4.53;3.10;;;9.70;59.20;;;;;;5015520;28;20611;-80
2022/03/06 12:41:11;;;;;;;4.10;2.73;;;9.40;59.80;;;;;;5043540;28;20234;-80
2022/03/06 12:43:50;;;;;;;3.93;2.90;;;9.20;60.20;;;;;;5019889;28;20709;-80
2022/03/06 12:46:19;;;;;;;5.37;2.83;;;9.10;61.20;;;;;;5034168;28;20322;-80
2022/03/06 12:48:49;;;;;;;3.27;2.60;;;9.00;61.50;;;;;;5017810;28;20244;-79
2022/03/06 12:51:39;;;;;;;4.30;2.73;;;9.10;61.20;;;;;;5024106;28;20255;-80
2022/03/06 12:54:08;;;;;;;4.50;2.70;;;9.10;60.80;;;;;;5031493;28;20883;-80
2022/03/06 12:56:38;;;;;;;6.03;3.20;;;9.00;60.50;;;;;;5022103;28;20230;-81